New Paltz, New York
Current Conditions -  °F | °C
As of 10:53 PM on Tuesday 27 Jan 2015 (Local Time) from KPOU Reporting Station
Overcast Overcast  
Wind Chill:   Ceiling: 4400
Heat Index: 15°   Visibility: 10mi
Dew Point:   Wind: 7mph
Humidity: 61%   Direction: 330°NNW
Pressure: 29.85"   Gusts: NA
Location:  41.75°N, 74.08°W
Report Text: KPOU 280353Z 33006KT 10SM OVC044 M09/M16 A2985 RMK AO2 SLP107 T10941156
Loading
Personal Weather Stations






























Interactive Weather Map New forecast layout! Learn more

10-Day Weather Forecast

Advertisements
Track Severe Weather on mobile